Time;durP1;ratioP1;P1;durP2;ratioP2;P2;SDS_P1;SDS_P2;PMS_P1;PMS_P2;Temp;Humidity;BMP_temperature;BMP_pressure;BME280_temperature;BME280_humidity;BME280_pressure;Samples;Min_cycle;Max_cycle;Signal;HPM_P1;HPM_P2
2020/12/27 00:00:35;;;;;;;;;;;;;;;6.77;51.59;100804.03;6087546;23;97220;-92
2020/12/27 00:05:37;;;;;;;;;;;;;;;6.34;52.90;100793.47;6030173;23;99056;-91
2020/12/27 00:08:02;;;;;;;;;;;;;;;6.16;52.44;100783.28;6056673;23;96493;-86
2020/12/27 00:10:40;;;;;;;;;;;;;;;6.69;52.78;100784.09;6057429;23;97007;-89
2020/12/27 00:13:06;;;;;;;;;;;;;;;6.52;53.48;100773.88;6056444;23;99021;-88
2020/12/27 00:15:38;;;;;;;;;;;;;;;6.37;52.52;100764.53;6057337;23;96527;-93
2020/12/27 00:18:07;;;;;;;;;;;;;;;6.57;52.05;100756.28;6057625;23;96447;-92
2020/12/27 00:20:33;;;;;;;;;;;;;;;6.50;53.08;100759.06;6056628;23;100285;-91
2020/12/27 00:22:59;;;;;;;;;;;;;;;6.63;51.60;100750.91;6058045;23;97452;-85
2020/12/27 00:25:25;;;;;;;;;;;;;;;6.34;52.15;100748.84;6057263;23;96927;-91
2020/12/27 00:27:51;;;;;;;;;;;;;;;6.74;51.18;100754.22;6058694;23;95961;-86
2020/12/27 00:32:59;;;;;;;;;;;;;;;6.71;50.72;100738.50;6052673;23;97117;-89
2020/12/27 00:35:25;;;;;;;;;;;;;;;6.20;51.92;100742.97;6043751;23;96671;-92
2020/12/27 00:37:51;;;;;;;;;;;;;;;6.13;51.72;100754.47;6041215;23;96675;-89
2020/12/27 00:40:18;;;;;;;;;;;;;;;6.22;52.00;100748.22;6039047;23;98222;-92
2020/12/27 00:42:46;;;;;;;;;;;;;;;6.53;51.21;100738.00;6047366;23;97366;-90
2020/12/27 00:45:19;;;;;;;;;;;;;;;6.20;51.14;100734.25;6025439;23;96658;-91
2020/12/27 00:47:46;;;;;;;;;;;;;;;6.22;51.29;100725.47;6053161;23;96696;-91
2020/12/27 00:50:14;;;;;;;;;;;;;;;6.50;50.67;100720.53;6052651;23;96920;-86
2020/12/27 00:52:40;;;;;;;;;;;;;;;6.13;51.62;100727.38;6058844;23;97851;-91
2020/12/27 00:55:07;;;;;;;;;;;;;;;6.11;51.81;100708.16;6059458;23;95887;-89
2020/12/27 00:57:34;;;;;;;;;;;;;;;5.96;51.99;100696.19;6034824;23;96054;-88
2020/12/27 01:00:01;;;;;;;;;;;;;;;6.15;51.72;100694.97;6053963;23;98396;-93
2020/12/27 01:02:27;;;;;;;;;;;;;;;6.22;51.51;100690.47;6056491;23;97135;-93
2020/12/27 01:05:19;;;;;;;;;;;;;;;5.69;53.31;100684.38;6041487;23;96412;-94
2020/12/27 01:07:47;;;;;;;;;;;;;;;6.02;52.17;100687.34;6024321;23;96495;-93
2020/12/27 01:10:13;;;;;;;;;;;;;;;6.04;51.93;100685.56;6025335;23;97161;-92
2020/12/27 01:12:44;;;;;;;;;;;;;;;5.86;52.57;100676.22;6024661;23;97034;-87
2020/12/27 01:15:11;;;;;;;;;;;;;;;5.89;52.32;100671.84;6030687;23;96558;-91
2020/12/27 01:20:12;;;;;;;;;;;;;;;5.92;52.34;100663.91;5995549;23;100010;-90
2020/12/27 01:25:27;;;;;;;;;;;;;;;5.49;53.44;100642.78;6037598;23;96278;-92
2020/12/27 01:27:55;;;;;;;;;;;;;;;6.03;52.30;100644.50;6057535;23;96026;-91
2020/12/27 01:30:21;;;;;;;;;;;;;;;6.43;50.90;100645.47;6007514;23;98813;-90
2020/12/27 01:32:47;;;;;;;;;;;;;;;6.20;51.27;100632.78;5998972;23;98197;-90
2020/12/27 01:35:13;;;;;;;;;;;;;;;6.11;51.13;100634.69;5998228;23;96572;-90
2020/12/27 01:37:41;;;;;;;;;;;;;;;6.12;51.29;100633.81;5999358;23;95968;-84
2020/12/27 01:40:10;;;;;;;;;;;;;;;5.93;51.58;100621.03;5994581;23;97087;-85
2020/12/27 01:42:36;;;;;;;;;;;;;;;6.21;51.24;100615.28;5972143;23;96855;-93
2020/12/27 01:45:04;;;;;;;;;;;;;;;6.09;51.10;100598.03;5972628;23;97083;-90
2020/12/27 01:47:33;;;;;;;;;;;;;;;5.75;52.75;100594.25;5972666;23;96168;-90
2020/12/27 01:50:00;;;;;;;;;;;;;;;6.19;51.27;100586.44;5971973;23;97090;-90
2020/12/27 01:52:26;;;;;;;;;;;;;;;6.17;51.29;100590.00;5971833;23;98131;-89
2020/12/27 01:54:52;;;;;;;;;;;;;;;5.91;51.55;100587.84;5972721;23;96003;-86
2020/12/27 01:57:37;;;;;;;;;;;;;;;5.87;51.22;100588.78;5972119;23;96137;-89
2020/12/27 02:00:09;;;;;;;;;;;;;;;5.73;51.99;100570.69;5972520;23;99267;-83
2020/12/27 02:02:48;;;;;;;;;;;;;;;6.34;50.79;100572.16;5972649;23;97865;-87
2020/12/27 02:05:15;;;;;;;;;;;;;;;6.22;50.67;100572.41;5973384;23;96110;-88
2020/12/27 02:07:44;;;;;;;;;;;;;;;6.26;50.74;100555.69;5973028;23;95973;-84
2020/12/27 02:10:11;;;;;;;;;;;;;;;6.49;50.01;100552.59;5972426;23;97987;-87
2020/12/27 02:12:37;;;;;;;;;;;;;;;6.23;50.77;100548.78;5969730;23;100197;-93
2020/12/27 02:15:04;;;;;;;;;;;;;;;6.23;50.44;100556.63;5970445;23;96815;-93
2020/12/27 02:17:31;;;;;;;;;;;;;;;6.33;50.49;100536.31;5971169;23;95988;-93
2020/12/27 02:19:57;;;;;;;;;;;;;;;6.27;50.73;100536.44;5969005;23;100277;-93
2020/12/27 02:25:14;;;;;;;;;;;;;;;6.15;50.68;100532.31;6006562;23;96018;-92
2020/12/27 02:30:21;;;;;;;;;;;;;;;6.23;50.49;100522.53;6012431;23;98836;-88
2020/12/27 02:32:46;;;;;;;;;;;;;;;6.10;50.69;100510.56;6009417;23;98267;-87
2020/12/27 02:35:12;;;;;;;;;;;;;;;5.94;51.28;100499.50;6009677;23;96761;-87
2020/12/27 02:37:38;;;;;;;;;;;;;;;5.84;51.75;100487.44;6008799;23;96662;-86
2020/12/27 02:40:07;;;;;;;;;;;;;;;5.85;51.13;100483.06;6018295;23;98774;-91
2020/12/27 02:42:36;;;;;;;;;;;;;;;5.92;51.28;100469.81;6020537;23;96489;-89
2020/12/27 02:45:12;;;;;;;;;;;;;;;6.17;50.91;100466.69;6020147;23;96631;-90
2020/12/27 02:47:39;;;;;;;;;;;;;;;6.31;49.97;100460.22;6017574;23;96681;-90
2020/12/27 02:50:09;;;;;;;;;;;;;;;6.34;50.28;100462.78;6017053;23;97873;-92
2020/12/27 02:52:35;;;;;;;;;;;;;;;6.18;50.22;100447.41;6015787;23;98164;-92
2020/12/27 02:55:01;;;;;;;;;;;;;;;6.25;50.42;100454.25;6018343;23;96746;-90
2020/12/27 02:57:27;;;;;;;;;;;;;;;6.29;50.05;100450.69;6014569;23;96573;-88
2020/12/27 02:59:54;;;;;;;;;;;;;;;5.91;50.66;100439.25;6015239;23;98112;-89
2020/12/27 03:02:20;;;;;;;;;;;;;;;6.03;50.65;100439.91;6014255;23;99093;-89
2020/12/27 03:07:11;;;;;;;;;;;;;;;6.02;51.03;100404.06;5984352;23;114214;-91
2020/12/27 03:09:37;;;;;;;;;;;;;;;6.03;50.24;100403.19;5987055;23;98373;-90
2020/12/27 03:12:03;;;;;;;;;;;;;;;6.10;50.04;100404.78;5989814;23;97727;-90
2020/12/27 03:14:34;;;;;;;;;;;;;;;5.69;50.80;100405.63;5999889;23;95922;-90
2020/12/27 03:17:00;;;;;;;;;;;;;;;5.19;51.64;100395.25;5998172;23;96472;-89
2020/12/27 03:19:26;;;;;;;;;;;;;;;5.80;50.83;100396.63;5990402;23;100028;-89
2020/12/27 03:21:53;;;;;;;;;;;;;;;5.82;50.70;100402.72;5986646;23;98071;-89
2020/12/27 03:24:19;;;;;;;;;;;;;;;5.78;50.73;100385.31;5990915;23;96572;-87
2020/12/27 03:26:45;;;;;;;;;;;;;;;5.63;50.66;100383.03;5984019;23;96879;-88
2020/12/27 03:29:11;;;;;;;;;;;;;;;5.86;50.26;100379.91;5984577;23;97906;-88
2020/12/27 03:31:36;;;;;;;;;;;;;;;5.46;51.33;100375.50;5985532;23;98149;-88
2020/12/27 03:34:03;;;;;;;;;;;;;;;5.44;51.89;100363.34;5985687;23;96646;-87
2020/12/27 03:36:30;;;;;;;;;;;;;;;5.52;51.45;100367.50;5986053;23;96712;-87
2020/12/27 03:38:56;;;;;;;;;;;;;;;5.67;50.68;100362.84;5986858;23;98544;-88
2020/12/27 03:41:21;;;;;;;;;;;;;;;5.97;49.84;100363.06;5987782;23;99328;-88
2020/12/27 03:43:47;;;;;;;;;;;;;;;5.73;50.59;100365.34;5985362;23;96794;-90
2020/12/27 03:46:13;;;;;;;;;;;;;;;5.93;49.81;100357.91;5986595;23;96681;-89
2020/12/27 03:48:39;;;;;;;;;;;;;;;5.96;49.79;100358.72;5984371;23;99694;-88
2020/12/27 03:51:06;;;;;;;;;;;;;;;5.93;50.09;100352.69;5983751;23;99239;-88
2020/12/27 03:53:31;;;;;;;;;;;;;;;5.81;50.05;100353.78;5983015;23;97091;-89
2020/12/27 03:55:57;;;;;;;;;;;;;;;5.98;49.36;100342.94;5983044;23;96820;-89
2020/12/27 03:58:23;;;;;;;;;;;;;;;6.03;49.36;100343.72;5982854;23;97933;-89
2020/12/27 04:00:50;;;;;;;;;;;;;;;5.89;49.87;100346.66;5982647;23;99558;-88
2020/12/27 04:03:16;;;;;;;;;;;;;;;5.82;50.27;100345.03;5982474;23;96750;-90
2020/12/27 04:05:42;;;;;;;;;;;;;;;5.97;49.43;100339.44;5982570;23;97465;-90
2020/12/27 04:08:08;;;;;;;;;;;;;;;5.89;50.15;100340.53;5981608;23;97821;-90
2020/12/27 04:10:34;;;;;;;;;;;;;;;5.57;50.23;100329.00;5984428;23;99428;-90
2020/12/27 04:13:00;;;;;;;;;;;;;;;5.60;50.20;100320.19;5984114;23;96893;-90
2020/12/27 04:15:26;;;;;;;;;;;;;;;6.10;49.24;100308.56;5985597;23;96517;-89
2020/12/27 04:17:52;;;;;;;;;;;;;;;5.62;50.57;100305.28;5984621;23;97689;-90
2020/12/27 04:20:18;;;;;;;;;;;;;;;5.41;50.54;100290.88;5987167;23;96686;-89
2020/12/27 04:22:43;;;;;;;;;;;;;;;5.67;50.34;100294.69;5986949;23;96562;-90
2020/12/27 04:25:10;;;;;;;;;;;;;;;5.80;50.23;100283.88;5983913;23;96793;-90
2020/12/27 04:27:36;;;;;;;;;;;;;;;5.97;49.75;100279.13;5972461;23;97707;-90
2020/12/27 04:30:02;;;;;;;;;;;;;;;5.98;49.51;100283.47;5978906;23;99281;-91
2020/12/27 04:32:28;;;;;;;;;;;;;;;6.16;48.81;100273.47;5986358;23;96780;-90
2020/12/27 04:34:54;;;;;;;;;;;;;;;5.96;48.78;100277.44;5980034;23;96639;-89
2020/12/27 04:37:21;;;;;;;;;;;;;;;5.90;49.35;100251.34;5981028;23;97936;-89
2020/12/27 04:39:47;;;;;;;;;;;;;;;5.60;49.75;100247.66;5979954;23;97919;-90
2020/12/27 04:42:13;;;;;;;;;;;;;;;5.89;49.16;100239.16;5978544;23;96665;-88
2020/12/27 04:44:39;;;;;;;;;;;;;;;5.74;49.85;100228.13;5980624;23;96627;-89
2020/12/27 04:47:05;;;;;;;;;;;;;;;5.68;50.11;100225.66;5981423;23;98960;-87
2020/12/27 04:49:31;;;;;;;;;;;;;;;5.71;49.76;100220.34;5978038;23;98785;-86
2020/12/27 04:52:00;;;;;;;;;;;;;;;5.54;50.33;100228.59;5981106;23;96588;-87
2020/12/27 04:54:26;;;;;;;;;;;;;;;5.38;50.50;100209.72;5988634;23;96569;-87
2020/12/27 04:56:52;;;;;;;;;;;;;;;5.55;50.13;100209.34;5987015;23;97849;-87
2020/12/27 04:59:19;;;;;;;;;;;;;;;5.16;50.68;100203.25;5985935;23;98094;-87
2020/12/27 05:01:45;;;;;;;;;;;;;;;5.21;51.08;100204.88;5987015;23;96715;-87
2020/12/27 05:04:10;;;;;;;;;;;;;;;5.61;50.02;100202.19;5984771;23;96827;-86
2020/12/27 05:06:36;;;;;;;;;;;;;;;5.47;50.24;100198.19;5981930;23;100010;-87
2020/12/27 05:09:02;;;;;;;;;;;;;;;5.61;49.57;100202.19;5979849;23;99310;-87
2020/12/27 05:11:29;;;;;;;;;;;;;;;5.56;50.06;100195.34;5982409;23;96571;-87
2020/12/27 05:13:54;;;;;;;;;;;;;;;5.55;50.13;100191.88;5981357;23;96729;-88
2020/12/27 05:16:21;;;;;;;;;;;;;;;5.22;50.08;100185.66;5980541;23;98825;-87
2020/12/27 05:18:50;;;;;;;;;;;;;;;5.15;51.38;100189.28;5979966;23;97944;-88
2020/12/27 05:21:18;;;;;;;;;;;;;;;5.04;50.97;100188.69;5980602;23;96948;-88
2020/12/27 05:23:44;;;;;;;;;;;;;;;5.08;51.02;100192.94;5981504;23;96596;-88
2020/12/27 05:26:10;;;;;;;;;;;;;;;5.41;50.32;100185.22;5981253;23;101399;-88
2020/12/27 05:28:38;;;;;;;;;;;;;;;5.50;50.20;100175.41;5984080;23;100064;-88
2020/12/27 05:31:10;;;;;;;;;;;;;;;5.41;49.98;100175.59;5983506;23;96595;-89
2020/12/27 05:33:39;;;;;;;;;;;;;;;5.08;51.24;100164.13;5983790;23;96917;-90
2020/12/27 05:36:05;;;;;;;;;;;;;;;4.70;52.73;100151.03;5983046;23;97824;-91
2020/12/27 05:38:31;;;;;;;;;;;;;;;4.82;51.88;100140.28;5986314;23;98833;-89
2020/12/27 05:40:57;;;;;;;;;;;;;;;4.94;51.18;100129.53;5984961;23;96554;-88
2020/12/27 05:43:22;;;;;;;;;;;;;;;4.86;51.17;100121.00;5988117;23;96957;-88
2020/12/27 05:45:51;;;;;;;;;;;;;;;4.93;51.42;100130.44;5989340;23;98406;-89
2020/12/27 05:48:17;;;;;;;;;;;;;;;4.49;52.06;100122.69;5982814;23;98789;-89
2020/12/27 05:50:43;;;;;;;;;;;;;;;4.66;52.16;100115.34;5979224;23;96624;-88
2020/12/27 05:53:15;;;;;;;;;;;;;;;4.91;51.87;100115.66;5980162;23;96932;-89
2020/12/27 05:55:43;;;;;;;;;;;;;;;5.08;51.05;100114.38;5980436;23;99019;-89
2020/12/27 05:58:09;;;;;;;;;;;;;;;5.03;50.99;100097.91;5978795;23;99123;-89
2020/12/27 06:00:35;;;;;;;;;;;;;;;4.91;51.68;100087.75;5980266;23;97194;-87
2020/12/27 06:03:01;;;;;;;;;;;;;;;4.96;51.19;100083.25;5977231;23;96867;-88
2020/12/27 06:05:45;;;;;;;;;;;;;;;5.04;50.93;100081.31;5970598;23;98249;-87
2020/12/27 06:08:20;;;;;;;;;;;;;;;4.91;51.50;100065.94;5958199;23;98911;-88
2020/12/27 06:10:55;;;;;;;;;;;;;;;5.03;51.37;100069.13;5954273;23;96652;-89
2020/12/27 06:13:38;;;;;;;;;;;;;;;4.79;51.25;100054.81;5953416;23;96649;-89
2020/12/27 06:16:07;;;;;;;;;;;;;;;4.76;51.63;100038.34;5979183;23;101060;-89
2020/12/27 06:18:38;;;;;;;;;;;;;;;4.99;50.97;100035.19;5982259;23;100523;-89
2020/12/27 06:21:08;;;;;;;;;;;;;;;4.96;50.41;100025.66;5984964;23;96612;-89
2020/12/27 06:23:35;;;;;;;;;;;;;;;5.12;50.13;100021.75;5989148;23;96566;-89
2020/12/27 06:26:01;;;;;;;;;;;;;;;4.70;51.63;100020.16;5963099;23;99368;-88
2020/12/27 06:28:28;;;;;;;;;;;;;;;4.43;51.57;100013.78;5987693;23;98099;-89
2020/12/27 06:30:55;;;;;;;;;;;;;;;4.27;51.73;100001.94;5982632;23;96712;-88
2020/12/27 06:33:23;;;;;;;;;;;;;;;4.19;52.07;100002.13;5982133;23;96745;-87
2020/12/27 06:35:49;;;;;;;;;;;;;;;4.46;51.43;99997.19;5986421;23;97928;-88
2020/12/27 06:38:16;;;;;;;;;;;;;;;4.47;51.00;100004.09;5989157;23;96823;-87
2020/12/27 06:40:44;;;;;;;;;;;;;;;4.69;51.07;99981.81;5993049;23;96503;-87
2020/12/27 06:43:13;;;;;;;;;;;;;;;4.68;50.44;99977.47;5991411;23;96657;-90
2020/12/27 06:45:44;;;;;;;;;;;;;;;4.82;49.78;99967.53;5993361;23;97811;-90
2020/12/27 06:48:10;;;;;;;;;;;;;;;4.67;49.91;99954.78;5994146;23;100613;-89
2020/12/27 06:50:43;;;;;;;;;;;;;;;4.34;50.94;99972.13;5998063;23;96028;-88
2020/12/27 06:53:10;;;;;;;;;;;;;;;4.67;50.10;99963.50;5998151;23;96452;-85
2020/12/27 06:55:36;;;;;;;;;;;;;;;4.44;50.05;99960.59;5997728;23;98056;-88
2020/12/27 06:58:19;;;;;;;;;;;;;;;4.30;50.50;99947.81;5997223;23;98194;-89
2020/12/27 07:00:45;;;;;;;;;;;;;;;4.15;51.70;99926.38;5991945;23;96493;-90
2020/12/27 07:03:11;;;;;;;;;;;;;;;4.48;50.48;99909.03;5984285;23;96656;-88
2020/12/27 07:05:37;;;;;;;;;;;;;;;4.51;50.37;99914.22;5991746;23;98932;-88
2020/12/27 07:08:04;;;;;;;;;;;;;;;4.73;49.84;99908.41;6009993;23;101800;-90
2020/12/27 07:10:31;;;;;;;;;;;;;;;4.61;49.47;99910.47;6017812;23;96593;-89
2020/12/27 07:13:07;;;;;;;;;;;;;;;4.30;50.25;99912.97;6027045;23;96284;-89
2020/12/27 07:15:34;;;;;;;;;;;;;;;4.62;49.98;99901.72;6026441;23;96515;-89
2020/12/27 07:18:05;;;;;;;;;;;;;;;4.36;49.85;99902.34;6026339;23;99325;-88
2020/12/27 07:20:31;;;;;;;;;;;;;;;4.49;49.40;99885.47;6020735;23;96684;-89
2020/12/27 07:22:57;;;;;;;;;;;;;;;4.10;50.07;99878.56;6015777;23;96663;-88
2020/12/27 07:25:23;;;;;;;;;;;;;;;4.04;50.52;99890.03;5987443;23;97665;-88
2020/12/27 07:27:50;;;;;;;;;;;;;;;4.42;49.24;99899.59;6008599;23;97772;-88
2020/12/27 07:30:16;;;;;;;;;;;;;;;4.21;49.79;99900.94;6008193;23;96649;-88
2020/12/27 07:32:44;;;;;;;;;;;;;;;4.51;49.34;99922.06;6009161;23;96860;-89
2020/12/27 07:35:10;;;;;;;;;;;;;;;4.32;49.07;99890.25;6009833;23;97606;-88
2020/12/27 07:37:35;;;;;;;;;;;;;;;4.55;48.83;99903.63;6010571;23;98882;-90
2020/12/27 07:40:02;;;;;;;;;;;;;;;4.51;48.41;99880.19;6013686;23;96503;-89
2020/12/27 07:42:28;;;;;;;;;;;;;;;4.81;47.58;99879.41;6012366;23;96663;-90
2020/12/27 07:44:55;;;;;;;;;;;;;;;4.60;48.16;99880.81;6015928;23;99445;-90
2020/12/27 07:47:21;;;;;;;;;;;;;;;4.79;47.75;99868.16;6025164;23;100751;-90
2020/12/27 07:50:07;;;;;;;;;;;;;;;4.68;47.05;99870.16;6028477;23;96527;-91
2020/12/27 07:52:54;;;;;;;;;;;;;;;4.30;47.47;99861.50;6026981;23;96445;-90
2020/12/27 07:55:21;;;;;;;;;;;;;;;4.45;47.50;99856.81;6016322;23;98218;-89
2020/12/27 07:57:47;;;;;;;;;;;;;;;4.45;47.92;99869.91;6026898;23;98253;-89
2020/12/27 08:00:12;;;;;;;;;;;;;;;4.68;46.47;99846.59;6028523;23;96249;-88
2020/12/27 08:02:38;;;;;;;;;;;;;;;4.66;46.47;99835.34;6028872;23;96280;-90
2020/12/27 08:05:05;;;;;;;;;;;;;;;4.52;46.11;99842.69;6026936;23;102307;-89
2020/12/27 08:07:31;;;;;;;;;;;;;;;4.14;46.94;99849.69;6028180;23;99568;-89
2020/12/27 08:09:57;;;;;;;;;;;;;;;4.02;47.27;99842.13;6028715;23;97489;-89
2020/12/27 08:12:22;;;;;;;;;;;;;;;4.39;46.49;99847.38;6029314;23;95926;-85
2020/12/27 08:14:48;;;;;;;;;;;;;;;4.26;46.42;99838.09;6027821;23;97877;-88
2020/12/27 08:17:17;;;;;;;;;;;;;;;4.61;46.14;99837.19;5999437;23;97638;-85
2020/12/27 08:19:43;;;;;;;;;;;;;;;4.63;45.20;99833.66;6017772;23;96661;-89
2020/12/27 08:22:09;;;;;;;;;;;;;;;4.65;44.99;99836.25;6020151;23;96574;-89
2020/12/27 08:24:35;;;;;;;;;;;;;;;4.18;45.67;99832.19;6018316;23;96695;-90
2020/12/27 08:27:01;;;;;;;;;;;;;;;4.41;45.73;99822.00;6019318;23;97740;-89
2020/12/27 08:29:27;;;;;;;;;;;;;;;4.53;44.36;99826.91;6026526;23;95846;-89
2020/12/27 08:31:54;;;;;;;;;;;;;;;4.45;45.55;99828.91;6024031;23;96544;-89
2020/12/27 08:34:20;;;;;;;;;;;;;;;4.69;44.13;99832.63;6026604;23;96959;-88
2020/12/27 08:36:47;;;;;;;;;;;;;;;4.80;44.18;99833.19;6027537;23;98316;-89
2020/12/27 08:39:17;;;;;;;;;;;;;;;4.45;44.22;99859.44;6027776;23;96148;-90
2020/12/27 08:41:46;;;;;;;;;;;;;;;4.66;44.82;99830.94;6028089;23;95996;-90
2020/12/27 08:44:19;;;;;;;;;;;;;;;4.40;44.41;99828.13;6027041;23;99048;-91
2020/12/27 08:46:48;;;;;;;;;;;;;;;4.26;44.72;99838.97;6027665;23;98098;-89
2020/12/27 08:49:20;;;;;;;;;;;;;;;5.11;42.95;99841.97;6025084;23;95974;-90
2020/12/27 08:51:47;;;;;;;;;;;;;;;5.01;43.15;99839.63;6012676;23;96611;-90
2020/12/27 08:54:15;;;;;;;;;;;;;;;5.20;42.63;99832.97;6013072;23;100469;-88
2020/12/27 08:56:42;;;;;;;;;;;;;;;4.89;43.19;99819.88;6012134;23;98887;-89
2020/12/27 08:59:12;;;;;;;;;;;;;;;4.87;42.82;99839.13;6001564;23;96685;-89
2020/12/27 09:01:38;;;;;;;;;;;;;;;4.90;43.07;99841.69;6013712;23;97009;-89
2020/12/27 09:04:04;;;;;;;;;;;;;;;5.54;41.91;99841.59;6015116;23;96987;-89
2020/12/27 09:06:30;;;;;;;;;;;;;;;5.69;41.46;99856.00;6018561;23;99154;-87
2020/12/27 09:09:00;;;;;;;;;;;;;;;5.36;41.55;99841.28;6014008;23;96555;-90
2020/12/27 09:11:26;;;;;;;;;;;;;;;5.33;41.41;99857.06;6018090;23;96873;-89
2020/12/27 09:13:54;;;;;;;;;;;;;;;4.87;42.49;99846.97;6021614;23;100312;-90
2020/12/27 09:16:33;;;;;;;;;;;;;;;4.81;42.84;99861.97;5999316;23;97493;-89
2020/12/27 09:21:50;;;;;;;;;;;;;;;5.32;41.89;99823.91;6024067;23;96285;-90
2020/12/27 09:24:16;;;;;;;;;;;;;;;5.34;42.14;99824.72;6025079;23;97915;-91
2020/12/27 09:26:41;;;;;;;;;;;;;;;4.65;42.56;99821.41;6025001;23;101920;-89
2020/12/27 09:29:15;;;;;;;;;;;;;;;4.79;43.08;99807.97;6024962;23;96402;-90
2020/12/27 09:31:41;;;;;;;;;;;;;;;4.65;42.68;99805.69;6027299;23;95952;-88
2020/12/27 09:34:07;;;;;;;;;;;;;;;4.42;43.03;99789.72;6027820;23;99375;-88
2020/12/27 09:36:33;;;;;;;;;;;;;;;4.97;42.80;99785.63;6028351;23;98029;-83
2020/12/27 09:38:59;;;;;;;;;;;;;;;5.11;42.53;99793.97;6028967;23;95781;-85
2020/12/27 09:41:25;;;;;;;;;;;;;;;5.25;41.77;99804.06;6019501;23;96565;-86
2020/12/27 09:43:52;;;;;;;;;;;;;;;5.08;42.34;99786.19;6028574;23;99979;-81
2020/12/27 09:46:37;;;;;;;;;;;;;;;4.74;42.60;99778.41;6021602;23;99888;-88
2020/12/27 09:49:14;;;;;;;;;;;;;;;5.08;42.17;99789.66;6012274;23;96649;-85
2020/12/27 09:51:41;;;;;;;;;;;;;;;5.21;42.16;99777.94;6010704;23;96596;-88
2020/12/27 09:54:07;;;;;;;;;;;;;;;5.67;40.87;99779.19;6010725;23;102138;-92
2020/12/27 09:56:39;;;;;;;;;;;;;;;5.18;41.57;99767.56;6022041;23;97867;-91
2020/12/27 09:59:09;;;;;;;;;;;;;;;4.77;42.61;99762.63;6022394;23;96765;-91
2020/12/27 10:01:35;;;;;;;;;;;;;;;5.40;41.93;99753.81;6019890;23;97071;-92
2020/12/27 10:04:01;;;;;;;;;;;;;;;5.49;41.18;99748.31;6016256;23;97859;-91
2020/12/27 10:06:42;;;;;;;;;;;;;;;5.43;41.64;99740.63;6013127;23;98245;-92
2020/12/27 10:09:09;;;;;;;;;;;;;;;5.36;41.11;99731.25;6011279;23;97137;-92
2020/12/27 10:11:34;;;;;;;;;;;;;;;5.76;40.49;99723.88;6015576;23;96956;-91
2020/12/27 10:14:00;;;;;;;;;;;;;;;5.52;40.79;99730.72;6014476;23;99311;-85
2020/12/27 10:16:26;;;;;;;;;;;;;;;5.43;40.92;99727.53;6005371;23;100235;-87
2020/12/27 10:18:52;;;;;;;;;;;;;;;5.11;41.64;99716.28;6007087;23;96763;-86
2020/12/27 10:21:18;;;;;;;;;;;;;;;5.25;41.43;99715.00;6012142;23;96950;-86
2020/12/27 10:26:29;;;;;;;;;;;;;;;5.28;41.08;99701.78;6020017;23;96867;-92
2020/12/27 10:28:55;;;;;;;;;;;;;;;5.17;41.33;99704.75;6020924;23;96597;-90
2020/12/27 10:31:21;;;;;;;;;;;;;;;5.63;40.68;99706.81;6023544;23;97124;-91
2020/12/27 10:33:47;;;;;;;;;;;;;;;5.51;40.51;99705.41;6024337;23;98711;-92
2020/12/27 10:39:00;;;;;;;;;;;;;;;5.16;40.81;99666.38;6024924;23;96003;-91
2020/12/27 10:41:49;;;;;;;;;;;;;;;4.97;41.32;99666.06;6027992;23;96111;-91
2020/12/27 10:46:57;;;;;;;;;;;;;;;5.79;40.52;99644.25;6023881;23;98462;-93
2020/12/27 10:49:24;;;;;;;;;;;;;;;5.86;39.61;99638.75;6025360;23;96053;-92
2020/12/27 10:51:50;;;;;;;;;;;;;;;5.18;40.87;99625.28;6026076;23;96655;-91
2020/12/27 10:54:19;;;;;;;;;;;;;;;5.65;40.11;99626.34;6026234;23;98161;-88
2020/12/27 10:56:46;;;;;;;;;;;;;;;5.27;40.25;99611.03;6026453;23;98144;-84
2020/12/27 10:59:13;;;;;;;;;;;;;;;4.92;40.81;99610.38;6026848;23;96032;-91
2020/12/27 11:01:42;;;;;;;;;;;;;;;5.19;40.40;99608.66;6025305;23;97302;-91
2020/12/27 11:04:08;;;;;;;;;;;;;;;5.38;40.24;99632.53;6025963;23;98216;-89
2020/12/27 11:09:37;;;;;;;;;;;;;;;5.64;40.33;99616.81;6026013;23;95996;-92
2020/12/27 11:12:03;;;;;;;;;;;;;;;5.43;39.89;99597.41;5995238;23;96544;-89
2020/12/27 11:14:29;;;;;;;;;;;;;;;5.66;39.59;99614.97;6014201;23;97798;-90
2020/12/27 11:16:56;;;;;;;;;;;;;;;5.71;39.30;99591.25;5986069;23;98087;-84
2020/12/27 11:22:07;;;;;;;;;;;;;;;5.91;38.90;99573.94;6016342;23;96769;-93
2020/12/27 11:24:36;;;;;;;;;;;;;;;5.63;39.02;99560.06;6014937;23;98284;-93
2020/12/27 11:27:02;;;;;;;;;;;;;;;5.67;38.84;99568.66;6021960;23;97489;-91
2020/12/27 11:29:29;;;;;;;;;;;;;;;5.48;39.47;99544.84;6024653;23;96664;-93
2020/12/27 11:34:53;;;;;;;;;;;;;;;5.66;39.32;99527.63;6012387;23;99021;-93
2020/12/27 11:40:07;;;;;;;;;;;;;;;5.75;38.66;99509.81;6025736;23;96487;-92
2020/12/27 11:42:32;;;;;;;;;;;;;;;5.28;38.47;99514.06;6026501;23;96187;-92
2020/12/27 11:45:02;;;;;;;;;;;;;;;5.38;38.88;99485.81;6026565;23;100542;-88
2020/12/27 11:47:28;;;;;;;;;;;;;;;5.60;38.85;99485.00;6027193;23;98133;-91
2020/12/27 11:55:20;;;;;;;;;;;;;;;5.44;38.60;99459.41;6025412;23;99408;-91
2020/12/27 11:57:48;;;;;;;;;;;;;;;5.86;38.13;99465.72;6025792;23;98174;-90
2020/12/27 12:00:15;;;;;;;;;;;;;;;5.87;37.81;99449.13;6026692;23;96091;-88
2020/12/27 12:02:42;;;;;;;;;;;;;;;6.09;37.70;99445.69;6026791;23;96182;-90
2020/12/27 12:08:19;;;;;;;;;;;;;;;5.67;37.99;99448.94;6023796;23;96710;-91
2020/12/27 12:11:22;;;;;;;;;;;;;;;5.77;37.38;99423.28;6006276;23;96689;-92
2020/12/27 12:16:21;;;;;;;;;;;;;;;5.83;36.87;99423.03;6050851;23;97093;-93
2020/12/27 12:21:49;;;;;;;;;;;;;;;5.52;37.61;99404.94;6052634;23;96243;-93
2020/12/27 12:24:23;;;;;;;;;;;;;;;5.72;36.72;99409.47;6052093;23;96664;-91
2020/12/27 12:26:49;;;;;;;;;;;;;;;5.90;36.71;99396.56;6053592;23;96367;-93
2020/12/27 12:29:15;;;;;;;;;;;;;;;5.52;36.60;99397.09;6051721;23;98092;-92
2020/12/27 12:31:42;;;;;;;;;;;;;;;6.04;36.40;99395.19;6052396;23;96372;-92
2020/12/27 12:34:09;;;;;;;;;;;;;;;5.85;36.37;99392.38;6052523;23;96700;-91
2020/12/27 12:36:40;;;;;;;;;;;;;;;5.80;36.62;99384.69;6030562;23;97910;-92
2020/12/27 12:39:06;;;;;;;;;;;;;;;5.41;36.53;99363.44;6052125;23;98461;-92
2020/12/27 12:41:33;;;;;;;;;;;;;;;5.84;35.49;99369.72;6050998;23;96192;-92
2020/12/27 12:43:59;;;;;;;;;;;;;;;5.38;35.96;99397.56;6025995;23;96349;-92
2020/12/27 12:46:25;;;;;;;;;;;;;;;5.89;35.58;99345.06;6038930;23;98419;-91
2020/12/27 12:48:53;;;;;;;;;;;;;;;5.51;35.79;99316.78;5982756;23;98667;-88
2020/12/27 12:51:19;;;;;;;;;;;;;;;5.44;35.17;99305.69;6054709;23;95827;-93
2020/12/27 12:53:46;;;;;;;;;;;;;;;5.93;35.28;99309.06;6052869;23;96595;-90
2020/12/27 12:59:06;;;;;;;;;;;;;;;6.17;35.15;99315.94;6046740;23;98722;-92
2020/12/27 13:04:28;;;;;;;;;;;;;;;5.80;36.58;99307.81;6040628;23;98281;-91
2020/12/27 13:06:54;;;;;;;;;;;;;;;5.75;37.48;99294.88;6045348;23;98867;-91
2020/12/27 13:12:11;;;;;;;;;;;;;;;5.65;36.98;99287.41;6047624;23;96636;-92
2020/12/27 13:14:38;;;;;;;;;;;;;;;5.88;37.03;99284.81;6049404;23;96514;-90
2020/12/27 13:17:04;;;;;;;;;;;;;;;5.79;36.60;99274.63;6055463;23;98039;-90
2020/12/27 13:19:31;;;;;;;;;;;;;;;5.52;37.21;99272.19;6051326;23;98349;-88
2020/12/27 13:21:57;;;;;;;;;;;;;;;5.59;37.00;99272.78;6052236;23;96395;-90
2020/12/27 13:24:23;;;;;;;;;;;;;;;5.75;36.65;99255.56;6053228;23;96436;-89
2020/12/27 13:26:49;;;;;;;;;;;;;;;6.03;36.20;99242.25;6053330;23;97140;-90
2020/12/27 13:29:16;;;;;;;;;;;;;;;5.65;36.30;99225.38;6029785;23;102998;-90
2020/12/27 13:31:43;;;;;;;;;;;;;;;5.52;36.64;99237.25;6053111;23;96137;-88
2020/12/27 13:34:09;;;;;;;;;;;;;;;5.74;36.67;99219.78;6055979;23;96677;-87
2020/12/27 13:36:35;;;;;;;;;;;;;;;5.44;36.90;99215.78;6056731;23;97630;-85
2020/12/27 13:39:16;;;;;;;;;;;;;;;5.84;37.10;99217.66;6054255;23;96548;-92
2020/12/27 13:41:45;;;;;;;;;;;;;;;5.79;36.36;99222.22;6056032;23;97815;-90
2020/12/27 13:44:11;;;;;;;;;;;;;;;5.73;36.42;99210.22;6027311;23;99328;-82
2020/12/27 13:46:38;;;;;;;;;;;;;;;5.95;36.19;99218.97;5999345;23;97240;-86
2020/12/27 13:49:06;;;;;;;;;;;;;;;5.97;36.16;99206.63;5998706;23;98438;-92
2020/12/27 13:51:35;;;;;;;;;;;;;;;5.61;36.39;99202.84;5999656;23;96133;-84
2020/12/27 13:54:02;;;;;;;;;;;;;;;5.41;36.48;99206.25;5996944;23;96405;-86
2020/12/27 13:56:29;;;;;;;;;;;;;;;5.22;36.84;99200.00;5999334;23;98983;-85